sensor_id;sensor_type;location;lat;lon;timestamp;P1;durP1;ratioP1;P2;durP2;ratioP2
13279;SDS011;6708;49.814;8.652;2024-01-15T00:01:41;30.00;;;15.50;;
13279;SDS011;6708;49.814;8.652;2024-01-15T00:04:13;26.37;;;14.90;;
13279;SDS011;6708;49.814;8.652;2024-01-15T00:06:41;27.73;;;14.60;;
13279;SDS011;6708;49.814;8.652;2024-01-15T00:09:10;28.13;;;14.77;;
13279;SDS011;6708;49.814;8.652;2024-01-15T00:11:38;29.27;;;15.63;;
13279;SDS011;6708;49.814;8.652;2024-01-15T00:14:08;26.40;;;13.77;;
13279;SDS011;6708;49.814;8.652;2024-01-15T00:16:40;23.77;;;13.97;;
13279;SDS011;6708;49.814;8.652;2024-01-15T00:19:08;24.77;;;14.07;;
13279;SDS011;6708;49.814;8.652;2024-01-15T00:21:39;23.80;;;12.97;;
13279;SDS011;6708;49.814;8.652;2024-01-15T00:24:08;22.00;;;13.13;;
13279;SDS011;6708;49.814;8.652;2024-01-15T00:26:40;22.20;;;12.73;;
13279;SDS011;6708;49.814;8.652;2024-01-15T00:29:08;24.00;;;14.37;;
13279;SDS011;6708;49.814;8.652;2024-01-15T00:31:37;21.43;;;12.73;;
13279;SDS011;6708;49.814;8.652;2024-01-15T00:34:05;27.70;;;13.97;;
13279;SDS011;6708;49.814;8.652;2024-01-15T00:36:33;23.13;;;13.30;;
13279;SDS011;6708;49.814;8.652;2024-01-15T00:39:04;25.47;;;12.77;;
13279;SDS011;6708;49.814;8.652;2024-01-15T00:41:33;20.17;;;12.97;;
13279;SDS011;6708;49.814;8.652;2024-01-15T00:44:01;22.83;;;13.50;;
13279;SDS011;6708;49.814;8.652;2024-01-15T00:46:30;20.23;;;12.90;;
13279;SDS011;6708;49.814;8.652;2024-01-15T00:48:58;21.67;;;12.77;;
13279;SDS011;6708;49.814;8.652;2024-01-15T00:51:28;17.70;;;12.70;;
13279;SDS011;6708;49.814;8.652;2024-01-15T00:53:56;24.37;;;13.70;;
13279;SDS011;6708;49.814;8.652;2024-01-15T00:56:27;21.53;;;12.60;;
13279;SDS011;6708;49.814;8.652;2024-01-15T00:58:57;14.87;;;10.97;;
13279;SDS011;6708;49.814;8.652;2024-01-15T01:01:25;21.80;;;12.80;;
13279;SDS011;6708;49.814;8.652;2024-01-15T01:03:54;16.27;;;11.37;;
13279;SDS011;6708;49.814;8.652;2024-01-15T01:06:22;17.10;;;11.67;;
13279;SDS011;6708;49.814;8.652;2024-01-15T01:08:51;20.07;;;11.53;;
13279;SDS011;6708;49.814;8.652;2024-01-15T01:11:19;21.07;;;11.70;;
13279;SDS011;6708;49.814;8.652;2024-01-15T01:13:50;21.17;;;12.40;;
13279;SDS011;6708;49.814;8.652;2024-01-15T01:16:18;24.70;;;12.30;;
13279;SDS011;6708;49.814;8.652;2024-01-15T01:18:47;23.60;;;11.60;;
13279;SDS011;6708;49.814;8.652;2024-01-15T01:21:15;18.90;;;11.93;;
13279;SDS011;6708;49.814;8.652;2024-01-15T01:23:44;17.00;;;11.10;;
13279;SDS011;6708;49.814;8.652;2024-01-15T01:26:15;18.97;;;11.53;;
13279;SDS011;6708;49.814;8.652;2024-01-15T01:28:43;25.00;;;11.17;;
13279;SDS011;6708;49.814;8.652;2024-01-15T01:31:15;22.57;;;12.33;;
13279;SDS011;6708;49.814;8.652;2024-01-15T01:33:43;21.80;;;12.07;;
13279;SDS011;6708;49.814;8.652;2024-01-15T01:36:11;21.07;;;11.83;;
13279;SDS011;6708;49.814;8.652;2024-01-15T01:38:40;21.33;;;12.33;;
13279;SDS011;6708;49.814;8.652;2024-01-15T01:41:09;19.33;;;11.13;;
13279;SDS011;6708;49.814;8.652;2024-01-15T01:43:38;26.73;;;13.33;;
13279;SDS011;6708;49.814;8.652;2024-01-15T01:46:06;20.10;;;10.87;;
13279;SDS011;6708;49.814;8.652;2024-01-15T01:48:38;24.60;;;13.07;;
13279;SDS011;6708;49.814;8.652;2024-01-15T01:51:06;15.97;;;11.10;;
13279;SDS011;6708;49.814;8.652;2024-01-15T01:53:35;16.63;;;11.33;;
13279;SDS011;6708;49.814;8.652;2024-01-15T01:56:04;17.03;;;11.10;;
13279;SDS011;6708;49.814;8.652;2024-01-15T01:58:33;22.03;;;11.60;;
13279;SDS011;6708;49.814;8.652;2024-01-15T02:01:03;18.53;;;11.00;;
13279;SDS011;6708;49.814;8.652;2024-01-15T02:03:32;18.03;;;10.57;;
13279;SDS011;6708;49.814;8.652;2024-01-15T02:06:06;18.20;;;11.17;;
13279;SDS011;6708;49.814;8.652;2024-01-15T02:08:35;17.63;;;10.90;;
13279;SDS011;6708;49.814;8.652;2024-01-15T02:11:04;19.27;;;12.00;;
13279;SDS011;6708;49.814;8.652;2024-01-15T02:13:32;19.87;;;11.67;;
13279;SDS011;6708;49.814;8.652;2024-01-15T02:16:01;18.83;;;10.93;;
13279;SDS011;6708;49.814;8.652;2024-01-15T02:18:29;17.57;;;10.93;;
13279;SDS011;6708;49.814;8.652;2024-01-15T02:21:10;19.77;;;11.70;;
13279;SDS011;6708;49.814;8.652;2024-01-15T02:23:42;18.57;;;10.90;;
13279;SDS011;6708;49.814;8.652;2024-01-15T02:26:10;20.77;;;12.47;;
13279;SDS011;6708;49.814;8.652;2024-01-15T02:28:39;16.67;;;10.63;;
13279;SDS011;6708;49.814;8.652;2024-01-15T02:31:09;20.60;;;11.50;;
13279;SDS011;6708;49.814;8.652;2024-01-15T02:33:38;16.33;;;11.30;;
13279;SDS011;6708;49.814;8.652;2024-01-15T02:36:07;20.57;;;11.83;;
13279;SDS011;6708;49.814;8.652;2024-01-15T02:38:36;16.33;;;10.70;;
13279;SDS011;6708;49.814;8.652;2024-01-15T02:41:07;21.10;;;10.90;;
13279;SDS011;6708;49.814;8.652;2024-01-15T02:43:35;17.90;;;10.97;;
13279;SDS011;6708;49.814;8.652;2024-01-15T02:46:03;16.57;;;9.93;;
13279;SDS011;6708;49.814;8.652;2024-01-15T02:48:33;17.03;;;9.80;;
13279;SDS011;6708;49.814;8.652;2024-01-15T02:51:04;14.17;;;9.70;;
13279;SDS011;6708;49.814;8.652;2024-01-15T02:53:32;19.73;;;10.73;;
13279;SDS011;6708;49.814;8.652;2024-01-15T02:56:00;18.63;;;10.50;;
13279;SDS011;6708;49.814;8.652;2024-01-15T02:58:31;16.30;;;11.03;;
13279;SDS011;6708;49.814;8.652;2024-01-15T03:01:00;15.67;;;9.90;;
13279;SDS011;6708;49.814;8.652;2024-01-15T03:03:28;16.73;;;10.40;;
13279;SDS011;6708;49.814;8.652;2024-01-15T03:05:59;15.93;;;10.10;;
13279;SDS011;6708;49.814;8.652;2024-01-15T03:08:27;19.50;;;11.07;;
13279;SDS011;6708;49.814;8.652;2024-01-15T03:10:56;14.73;;;10.10;;
13279;SDS011;6708;49.814;8.652;2024-01-15T03:13:25;15.33;;;10.30;;
13279;SDS011;6708;49.814;8.652;2024-01-15T03:15:56;16.13;;;9.70;;
13279;SDS011;6708;49.814;8.652;2024-01-15T03:18:24;19.27;;;10.80;;
13279;SDS011;6708;49.814;8.652;2024-01-15T03:20:52;20.37;;;10.83;;
13279;SDS011;6708;49.814;8.652;2024-01-15T03:23:21;17.93;;;10.77;;
13279;SDS011;6708;49.814;8.652;2024-01-15T03:25:55;16.27;;;10.53;;
13279;SDS011;6708;49.814;8.652;2024-01-15T03:28:23;15.07;;;9.87;;
13279;SDS011;6708;49.814;8.652;2024-01-15T03:30:51;15.33;;;9.93;;
13279;SDS011;6708;49.814;8.652;2024-01-15T03:33:23;24.03;;;11.30;;
13279;SDS011;6708;49.814;8.652;2024-01-15T03:35:51;19.33;;;10.60;;
13279;SDS011;6708;49.814;8.652;2024-01-15T03:38:20;16.73;;;9.50;;
13279;SDS011;6708;49.814;8.652;2024-01-15T03:40:48;14.33;;;9.47;;
13279;SDS011;6708;49.814;8.652;2024-01-15T03:43:17;19.47;;;9.83;;
13279;SDS011;6708;49.814;8.652;2024-01-15T03:45:46;20.37;;;11.53;;
13279;SDS011;6708;49.814;8.652;2024-01-15T03:48:15;15.20;;;9.33;;
13279;SDS011;6708;49.814;8.652;2024-01-15T03:50:46;13.33;;;9.13;;
13279;SDS011;6708;49.814;8.652;2024-01-15T03:53:14;19.60;;;11.20;;
13279;SDS011;6708;49.814;8.652;2024-01-15T03:55:43;15.77;;;10.80;;
13279;SDS011;6708;49.814;8.652;2024-01-15T03:58:11;15.13;;;9.90;;
13279;SDS011;6708;49.814;8.652;2024-01-15T04:00:40;15.07;;;9.60;;
13279;SDS011;6708;49.814;8.652;2024-01-15T04:03:08;17.20;;;10.60;;
13279;SDS011;6708;49.814;8.652;2024-01-15T04:05:37;15.03;;;10.27;;
13279;SDS011;6708;49.814;8.652;2024-01-15T04:08:08;14.43;;;10.30;;
13279;SDS011;6708;49.814;8.652;2024-01-15T04:10:37;14.70;;;10.30;;
13279;SDS011;6708;49.814;8.652;2024-01-15T04:13:05;14.50;;;10.13;;
13279;SDS011;6708;49.814;8.652;2024-01-15T04:15:34;13.03;;;9.10;;
13279;SDS011;6708;49.814;8.652;2024-01-15T04:18:03;15.60;;;9.50;;
13279;SDS011;6708;49.814;8.652;2024-01-15T04:20:34;15.50;;;10.07;;
13279;SDS011;6708;49.814;8.652;2024-01-15T04:23:03;12.33;;;9.53;;
13279;SDS011;6708;49.814;8.652;2024-01-15T04:25:34;23.00;;;10.83;;
13279;SDS011;6708;49.814;8.652;2024-01-15T04:28:04;15.70;;;9.43;;
13279;SDS011;6708;49.814;8.652;2024-01-15T04:30:33;14.87;;;9.50;;
13279;SDS011;6708;49.814;8.652;2024-01-15T04:33:01;15.70;;;9.80;;
13279;SDS011;6708;49.814;8.652;2024-01-15T04:35:30;18.00;;;10.00;;
13279;SDS011;6708;49.814;8.652;2024-01-15T04:37:58;13.30;;;9.80;;
13279;SDS011;6708;49.814;8.652;2024-01-15T04:40:27;18.70;;;10.73;;
13279;SDS011;6708;49.814;8.652;2024-01-15T04:42:57;20.93;;;10.27;;
13279;SDS011;6708;49.814;8.652;2024-01-15T04:45:26;15.63;;;9.63;;
13279;SDS011;6708;49.814;8.652;2024-01-15T04:47:55;14.97;;;10.30;;
13279;SDS011;6708;49.814;8.652;2024-01-15T04:50:23;15.20;;;9.87;;
13279;SDS011;6708;49.814;8.652;2024-01-15T04:52:52;16.47;;;9.97;;
13279;SDS011;6708;49.814;8.652;2024-01-15T04:55:20;15.93;;;10.13;;
13279;SDS011;6708;49.814;8.652;2024-01-15T04:57:49;16.47;;;11.07;;
13279;SDS011;6708;49.814;8.652;2024-01-15T05:00:20;16.83;;;10.30;;
13279;SDS011;6708;49.814;8.652;2024-01-15T05:02:49;16.30;;;9.70;;
13279;SDS011;6708;49.814;8.652;2024-01-15T05:05:17;15.10;;;9.90;;
13279;SDS011;6708;49.814;8.652;2024-01-15T05:07:45;17.60;;;9.77;;
13279;SDS011;6708;49.814;8.652;2024-01-15T05:10:14;20.30;;;9.70;;
13279;SDS011;6708;49.814;8.652;2024-01-15T05:12:42;13.70;;;9.03;;
13279;SDS011;6708;49.814;8.652;2024-01-15T05:15:10;14.53;;;9.60;;
13279;SDS011;6708;49.814;8.652;2024-01-15T05:17:41;16.43;;;9.93;;
13279;SDS011;6708;49.814;8.652;2024-01-15T05:20:10;13.87;;;9.73;;
13279;SDS011;6708;49.814;8.652;2024-01-15T05:22:40;16.27;;;9.33;;
13279;SDS011;6708;49.814;8.652;2024-01-15T05:25:09;19.50;;;10.63;;
13279;SDS011;6708;49.814;8.652;2024-01-15T05:27:39;17.57;;;8.83;;
13279;SDS011;6708;49.814;8.652;2024-01-15T05:30:07;13.73;;;9.27;;
13279;SDS011;6708;49.814;8.652;2024-01-15T05:32:36;20.50;;;9.50;;
13279;SDS011;6708;49.814;8.652;2024-01-15T05:35:08;12.80;;;8.90;;
13279;SDS011;6708;49.814;8.652;2024-01-15T05:37:36;14.57;;;9.57;;
13279;SDS011;6708;49.814;8.652;2024-01-15T05:40:05;14.67;;;9.67;;
13279;SDS011;6708;49.814;8.652;2024-01-15T05:42:34;15.30;;;10.47;;
13279;SDS011;6708;49.814;8.652;2024-01-15T05:45:03;17.83;;;10.17;;
13279;SDS011;6708;49.814;8.652;2024-01-15T05:47:32;18.47;;;9.20;;
13279;SDS011;6708;49.814;8.652;2024-01-15T05:50:00;16.37;;;10.30;;
13279;SDS011;6708;49.814;8.652;2024-01-15T05:52:32;14.30;;;9.57;;
13279;SDS011;6708;49.814;8.652;2024-01-15T05:55:02;15.37;;;10.13;;
13279;SDS011;6708;49.814;8.652;2024-01-15T05:57:31;14.93;;;9.33;;
13279;SDS011;6708;49.814;8.652;2024-01-15T05:59:59;14.87;;;9.53;;
13279;SDS011;6708;49.814;8.652;2024-01-15T06:02:31;20.43;;;9.47;;
13279;SDS011;6708;49.814;8.652;2024-01-15T06:05:00;19.50;;;9.67;;
13279;SDS011;6708;49.814;8.652;2024-01-15T06:07:28;15.57;;;9.43;;
13279;SDS011;6708;49.814;8.652;2024-01-15T06:09:59;17.83;;;10.30;;
13279;SDS011;6708;49.814;8.652;2024-01-15T06:12:28;17.30;;;9.43;;
13279;SDS011;6708;49.814;8.652;2024-01-15T06:14:57;13.60;;;9.33;;
13279;SDS011;6708;49.814;8.652;2024-01-15T06:17:26;13.37;;;9.53;;
13279;SDS011;6708;49.814;8.652;2024-01-15T06:19:56;15.33;;;10.10;;
13279;SDS011;6708;49.814;8.652;2024-01-15T06:22:25;20.00;;;10.00;;
13279;SDS011;6708;49.814;8.652;2024-01-15T06:24:53;16.47;;;9.63;;
13279;SDS011;6708;49.814;8.652;2024-01-15T06:27:24;15.80;;;9.70;;
13279;SDS011;6708;49.814;8.652;2024-01-15T06:29:53;12.20;;;9.30;;
13279;SDS011;6708;49.814;8.652;2024-01-15T06:32:21;15.67;;;10.00;;
13279;SDS011;6708;49.814;8.652;2024-01-15T06:34:50;16.90;;;9.90;;
13279;SDS011;6708;49.814;8.652;2024-01-15T06:37:19;14.63;;;9.33;;
13279;SDS011;6708;49.814;8.652;2024-01-15T06:39:47;14.57;;;9.93;;
13279;SDS011;6708;49.814;8.652;2024-01-15T06:42:16;16.80;;;10.03;;
13279;SDS011;6708;49.814;8.652;2024-01-15T06:44:47;15.03;;;9.10;;
13279;SDS011;6708;49.814;8.652;2024-01-15T06:47:17;13.40;;;8.53;;
13279;SDS011;6708;49.814;8.652;2024-01-15T06:49:45;15.13;;;9.20;;
13279;SDS011;6708;49.814;8.652;2024-01-15T06:52:18;14.93;;;9.53;;
13279;SDS011;6708;49.814;8.652;2024-01-15T06:54:47;14.37;;;9.73;;
13279;SDS011;6708;49.814;8.652;2024-01-15T06:57:15;14.17;;;8.80;;
13279;SDS011;6708;49.814;8.652;2024-01-15T06:59:47;12.67;;;9.37;;
13279;SDS011;6708;49.814;8.652;2024-01-15T07:02:16;12.90;;;9.37;;
13279;SDS011;6708;49.814;8.652;2024-01-15T07:04:44;9.93;;;7.87;;
13279;SDS011;6708;49.814;8.652;2024-01-15T07:07:12;13.73;;;8.87;;
13279;SDS011;6708;49.814;8.652;2024-01-15T07:09:41;14.10;;;9.33;;
13279;SDS011;6708;49.814;8.652;2024-01-15T07:12:10;19.73;;;9.27;;
13279;SDS011;6708;49.814;8.652;2024-01-15T07:14:38;11.40;;;9.10;;
13279;SDS011;6708;49.814;8.652;2024-01-15T07:17:09;15.80;;;9.97;;
13279;SDS011;6708;49.814;8.652;2024-01-15T07:19:37;15.50;;;10.47;;
13279;SDS011;6708;49.814;8.652;2024-01-15T07:22:06;13.23;;;8.93;;
13279;SDS011;6708;49.814;8.652;2024-01-15T07:24:35;18.57;;;9.40;;
13279;SDS011;6708;49.814;8.652;2024-01-15T07:27:03;14.23;;;9.37;;
13279;SDS011;6708;49.814;8.652;2024-01-15T07:29:33;16.90;;;9.10;;
13279;SDS011;6708;49.814;8.652;2024-01-15T07:32:02;14.00;;;9.40;;
13279;SDS011;6708;49.814;8.652;2024-01-15T07:34:35;19.67;;;10.20;;
13279;SDS011;6708;49.814;8.652;2024-01-15T07:37:10;11.17;;;8.77;;
13279;SDS011;6708;49.814;8.652;2024-01-15T07:39:39;15.07;;;10.17;;
13279;SDS011;6708;49.814;8.652;2024-01-15T07:42:08;14.20;;;10.40;;
13279;SDS011;6708;49.814;8.652;2024-01-15T07:44:36;15.30;;;9.73;;
13279;SDS011;6708;49.814;8.652;2024-01-15T07:47:05;14.80;;;10.97;;
13279;SDS011;6708;49.814;8.652;2024-01-15T07:49:37;16.40;;;11.03;;
13279;SDS011;6708;49.814;8.652;2024-01-15T07:52:06;13.27;;;9.60;;
13279;SDS011;6708;49.814;8.652;2024-01-15T07:54:35;14.03;;;9.87;;
13279;SDS011;6708;49.814;8.652;2024-01-15T07:57:03;16.53;;;11.37;;
13279;SDS011;6708;49.814;8.652;2024-01-15T07:59:32;13.03;;;9.87;;
13279;SDS011;6708;49.814;8.652;2024-01-15T08:02:05;13.17;;;9.57;;
13279;SDS011;6708;49.814;8.652;2024-01-15T08:04:34;14.17;;;10.00;;
13279;SDS011;6708;49.814;8.652;2024-01-15T08:07:05;13.13;;;9.67;;
13279;SDS011;6708;49.814;8.652;2024-01-15T08:09:33;16.53;;;11.00;;
13279;SDS011;6708;49.814;8.652;2024-01-15T08:12:02;14.17;;;10.23;;
13279;SDS011;6708;49.814;8.652;2024-01-15T08:14:31;14.63;;;10.43;;
13279;SDS011;6708;49.814;8.652;2024-01-15T08:16:59;17.73;;;10.43;;
13279;SDS011;6708;49.814;8.652;2024-01-15T08:19:28;13.27;;;9.63;;
13279;SDS011;6708;49.814;8.652;2024-01-15T08:21:57;13.67;;;9.60;;
13279;SDS011;6708;49.814;8.652;2024-01-15T08:24:28;13.50;;;9.93;;
13279;SDS011;6708;49.814;8.652;2024-01-15T08:26:56;16.37;;;10.43;;
13279;SDS011;6708;49.814;8.652;2024-01-15T08:29:25;15.10;;;10.00;;
13279;SDS011;6708;49.814;8.652;2024-01-15T08:31:53;13.17;;;9.23;;
13279;SDS011;6708;49.814;8.652;2024-01-15T08:34:22;16.37;;;10.13;;
13279;SDS011;6708;49.814;8.652;2024-01-15T08:36:50;18.07;;;9.73;;
13279;SDS011;6708;49.814;8.652;2024-01-15T08:39:19;14.20;;;9.93;;
13279;SDS011;6708;49.814;8.652;2024-01-15T08:41:50;13.77;;;10.17;;
13279;SDS011;6708;49.814;8.652;2024-01-15T08:44:18;13.87;;;9.47;;
13279;SDS011;6708;49.814;8.652;2024-01-15T08:46:47;12.33;;;9.47;;
13279;SDS011;6708;49.814;8.652;2024-01-15T08:49:16;16.17;;;8.93;;
13279;SDS011;6708;49.814;8.652;2024-01-15T08:51:46;11.67;;;9.23;;
13279;SDS011;6708;49.814;8.652;2024-01-15T08:54:16;15.07;;;9.17;;
13279;SDS011;6708;49.814;8.652;2024-01-15T08:56:44;11.87;;;9.27;;
13279;SDS011;6708;49.814;8.652;2024-01-15T08:59:15;10.73;;;8.57;;
13279;SDS011;6708;49.814;8.652;2024-01-15T09:01:52;12.30;;;8.77;;
13279;SDS011;6708;49.814;8.652;2024-01-15T09:04:22;14.20;;;9.57;;
13279;SDS011;6708;49.814;8.652;2024-01-15T09:06:51;14.17;;;10.17;;
13279;SDS011;6708;49.814;8.652;2024-01-15T09:09:19;13.57;;;9.87;;
13279;SDS011;6708;49.814;8.652;2024-01-15T09:11:48;14.80;;;10.37;;
13279;SDS011;6708;49.814;8.652;2024-01-15T09:14:19;14.80;;;10.10;;
13279;SDS011;6708;49.814;8.652;2024-01-15T09:16:47;13.63;;;9.70;;
13279;SDS011;6708;49.814;8.652;2024-01-15T09:19:16;13.03;;;9.93;;
13279;SDS011;6708;49.814;8.652;2024-01-15T09:21:44;11.00;;;9.33;;
13279;SDS011;6708;49.814;8.652;2024-01-15T09:24:13;19.00;;;10.53;;
13279;SDS011;6708;49.814;8.652;2024-01-15T09:26:41;10.33;;;8.50;;
13279;SDS011;6708;49.814;8.652;2024-01-15T09:29:12;15.03;;;9.33;;
13279;SDS011;6708;49.814;8.652;2024-01-15T09:31:43;12.60;;;9.83;;
13279;SDS011;6708;49.814;8.652;2024-01-15T09:34:13;17.43;;;10.00;;
13279;SDS011;6708;49.814;8.652;2024-01-15T09:36:41;13.50;;;10.00;;
13279;SDS011;6708;49.814;8.652;2024-01-15T09:39:10;12.17;;;9.33;;
13279;SDS011;6708;49.814;8.652;2024-01-15T09:41:39;13.17;;;10.33;;
13279;SDS011;6708;49.814;8.652;2024-01-15T09:44:07;19.00;;;10.50;;
13279;SDS011;6708;49.814;8.652;2024-01-15T09:46:36;18.80;;;10.40;;
13279;SDS011;6708;49.814;8.652;2024-01-15T09:49:07;15.27;;;10.73;;
13279;SDS011;6708;49.814;8.652;2024-01-15T09:51:36;14.67;;;10.30;;
13279;SDS011;6708;49.814;8.652;2024-01-15T09:54:05;11.83;;;9.73;;
13279;SDS011;6708;49.814;8.652;2024-01-15T09:56:33;14.77;;;9.80;;
13279;SDS011;6708;49.814;8.652;2024-01-15T09:59:02;15.60;;;9.80;;
13279;SDS011;6708;49.814;8.652;2024-01-15T10:01:33;15.40;;;10.67;;
13279;SDS011;6708;49.814;8.652;2024-01-15T10:04:04;13.00;;;10.07;;
13279;SDS011;6708;49.814;8.652;2024-01-15T10:06:36;18.50;;;11.43;;
13279;SDS011;6708;49.814;8.652;2024-01-15T10:09:04;14.93;;;9.60;;
13279;SDS011;6708;49.814;8.652;2024-01-15T10:11:33;18.17;;;9.63;;
13279;SDS011;6708;49.814;8.652;2024-01-15T10:14:02;15.00;;;10.13;;
13279;SDS011;6708;49.814;8.652;2024-01-15T10:16:31;12.13;;;10.37;;
13279;SDS011;6708;49.814;8.652;2024-01-15T10:19:00;17.53;;;10.13;;
13279;SDS011;6708;49.814;8.652;2024-01-15T10:21:33;13.50;;;9.83;;
13279;SDS011;6708;49.814;8.652;2024-01-15T10:24:03;13.43;;;9.77;;
13279;SDS011;6708;49.814;8.652;2024-01-15T10:26:32;13.87;;;9.67;;
13279;SDS011;6708;49.814;8.652;2024-01-15T10:29:03;13.00;;;10.07;;
13279;SDS011;6708;49.814;8.652;2024-01-15T10:31:31;12.77;;;9.87;;
13279;SDS011;6708;49.814;8.652;2024-01-15T10:34:09;20.00;;;10.13;;
13279;SDS011;6708;49.814;8.652;2024-01-15T10:36:45;16.20;;;10.73;;
13279;SDS011;6708;49.814;8.652;2024-01-15T10:39:18;13.90;;;9.13;;
13279;SDS011;6708;49.814;8.652;2024-01-15T10:41:46;11.73;;;9.47;;
13279;SDS011;6708;49.814;8.652;2024-01-15T10:44:16;13.83;;;10.03;;
13279;SDS011;6708;49.814;8.652;2024-01-15T10:46:45;12.77;;;9.23;;
13279;SDS011;6708;49.814;8.652;2024-01-15T10:49:15;14.33;;;9.37;;
13279;SDS011;6708;49.814;8.652;2024-01-15T10:51:47;12.60;;;9.73;;
13279;SDS011;6708;49.814;8.652;2024-01-15T10:54:16;11.03;;;9.63;;
13279;SDS011;6708;49.814;8.652;2024-01-15T10:56:45;11.23;;;9.17;;
13279;SDS011;6708;49.814;8.652;2024-01-15T10:59:14;10.60;;;9.27;;
13279;SDS011;6708;49.814;8.652;2024-01-15T11:01:45;11.83;;;9.10;;
13279;SDS011;6708;49.814;8.652;2024-01-15T11:04:14;14.03;;;9.73;;
13279;SDS011;6708;49.814;8.652;2024-01-15T11:06:44;11.83;;;8.73;;
13279;SDS011;6708;49.814;8.652;2024-01-15T11:09:15;10.33;;;9.20;;
13279;SDS011;6708;49.814;8.652;2024-01-15T11:11:45;10.60;;;9.50;;
13279;SDS011;6708;49.814;8.652;2024-01-15T11:17:14;14.23;;;9.73;;
13279;SDS011;6708;49.814;8.652;2024-01-15T11:19:44;15.30;;;9.17;;
13279;SDS011;6708;49.814;8.652;2024-01-15T11:25:27;12.33;;;8.97;;
13279;SDS011;6708;49.814;8.652;2024-01-15T11:28:03;9.93;;;8.20;;
13279;SDS011;6708;49.814;8.652;2024-01-15T11:30:32;10.90;;;7.90;;
13279;SDS011;6708;49.814;8.652;2024-01-15T11:33:03;10.27;;;8.07;;
13279;SDS011;6708;49.814;8.652;2024-01-15T11:38:26;9.70;;;7.63;;
13279;SDS011;6708;49.814;8.652;2024-01-15T11:40:58;10.27;;;8.07;;
13279;SDS011;6708;49.814;8.652;2024-01-15T11:43:27;11.50;;;8.37;;
13279;SDS011;6708;49.814;8.652;2024-01-15T11:45:58;8.47;;;7.77;;
13279;SDS011;6708;49.814;8.652;2024-01-15T11:48:31;9.17;;;6.70;;
13279;SDS011;6708;49.814;8.652;2024-01-15T11:51:06;8.23;;;7.33;;
13279;SDS011;6708;49.814;8.652;2024-01-15T11:53:36;7.50;;;6.80;;
13279;SDS011;6708;49.814;8.652;2024-01-15T11:56:15;9.67;;;7.27;;
13279;SDS011;6708;49.814;8.652;2024-01-15T11:58:44;11.73;;;6.50;;
13279;SDS011;6708;49.814;8.652;2024-01-15T12:01:15;8.23;;;7.33;;
13279;SDS011;6708;49.814;8.652;2024-01-15T12:03:46;8.40;;;7.43;;
13279;SDS011;6708;49.814;8.652;2024-01-15T12:06:17;8.67;;;6.93;;
13279;SDS011;6708;49.814;8.652;2024-01-15T12:08:45;10.77;;;7.37;;
13279;SDS011;6708;49.814;8.652;2024-01-15T12:11:16;9.63;;;7.60;;
13279;SDS011;6708;49.814;8.652;2024-01-15T12:13:46;9.50;;;7.97;;
13279;SDS011;6708;49.814;8.652;2024-01-15T12:16:20;8.03;;;6.73;;
13279;SDS011;6708;49.814;8.652;2024-01-15T12:18:49;8.47;;;7.03;;
13279;SDS011;6708;49.814;8.652;2024-01-15T12:21:18;7.83;;;6.67;;
13279;SDS011;6708;49.814;8.652;2024-01-15T12:23:47;8.10;;;6.83;;
13279;SDS011;6708;49.814;8.652;2024-01-15T12:26:20;7.50;;;6.33;;
13279;SDS011;6708;49.814;8.652;2024-01-15T12:28:49;8.83;;;6.93;;
13279;SDS011;6708;49.814;8.652;2024-01-15T12:31:19;10.20;;;6.37;;
13279;SDS011;6708;49.814;8.652;2024-01-15T12:33:48;7.83;;;6.37;;
13279;SDS011;6708;49.814;8.652;2024-01-15T12:36:20;7.73;;;7.03;;
13279;SDS011;6708;49.814;8.652;2024-01-15T12:38:48;6.37;;;5.73;;
13279;SDS011;6708;49.814;8.652;2024-01-15T12:41:20;7.07;;;6.37;;
13279;SDS011;6708;49.814;8.652;2024-01-15T12:43:48;7.67;;;6.53;;
13279;SDS011;6708;49.814;8.652;2024-01-15T12:46:17;6.47;;;5.83;;
13279;SDS011;6708;49.814;8.652;2024-01-15T12:48:47;7.27;;;6.50;;
13279;SDS011;6708;49.814;8.652;2024-01-15T12:51:16;7.43;;;6.33;;
13279;SDS011;6708;49.814;8.652;2024-01-15T12:53:44;8.37;;;6.97;;
13279;SDS011;6708;49.814;8.652;2024-01-15T12:56:13;7.93;;;6.53;;
13279;SDS011;6708;49.814;8.652;2024-01-15T12:58:44;8.00;;;7.20;;
13279;SDS011;6708;49.814;8.652;2024-01-15T13:01:13;7.63;;;6.80;;
13279;SDS011;6708;49.814;8.652;2024-01-15T13:03:41;7.73;;;6.77;;
13279;SDS011;6708;49.814;8.652;2024-01-15T13:06:10;7.07;;;6.13;;
13279;SDS011;6708;49.814;8.652;2024-01-15T13:08:38;7.77;;;6.80;;
13279;SDS011;6708;49.814;8.652;2024-01-15T13:11:09;8.97;;;6.83;;
13279;SDS011;6708;49.814;8.652;2024-01-15T13:13:40;7.67;;;6.80;;
13279;SDS011;6708;49.814;8.652;2024-01-15T13:16:11;7.27;;;6.23;;
13279;SDS011;6708;49.814;8.652;2024-01-15T13:18:40;5.90;;;4.97;;
13279;SDS011;6708;49.814;8.652;2024-01-15T13:21:08;6.47;;;5.47;;
13279;SDS011;6708;49.814;8.652;2024-01-15T13:23:38;7.97;;;6.07;;
13279;SDS011;6708;49.814;8.652;2024-01-15T13:26:06;6.23;;;5.57;;
13279;SDS011;6708;49.814;8.652;2024-01-15T13:28:35;6.43;;;5.83;;
13279;SDS011;6708;49.814;8.652;2024-01-15T13:31:03;7.77;;;5.67;;
13279;SDS011;6708;49.814;8.652;2024-01-15T13:33:36;6.40;;;5.40;;
13279;SDS011;6708;49.814;8.652;2024-01-15T13:36:08;6.97;;;4.63;;
13279;SDS011;6708;49.814;8.652;2024-01-15T13:38:36;5.33;;;4.73;;
13279;SDS011;6708;49.814;8.652;2024-01-15T13:41:05;5.00;;;4.60;;
13279;SDS011;6708;49.814;8.652;2024-01-15T13:43:33;6.37;;;5.17;;
13279;SDS011;6708;49.814;8.652;2024-01-15T13:46:02;7.00;;;4.70;;
13279;SDS011;6708;49.814;8.652;2024-01-15T13:48:31;5.17;;;4.67;;
13279;SDS011;6708;49.814;8.652;2024-01-15T13:51:03;5.37;;;4.87;;
13279;SDS011;6708;49.814;8.652;2024-01-15T13:53:31;5.60;;;5.10;;
13279;SDS011;6708;49.814;8.652;2024-01-15T13:56:00;4.97;;;4.57;;
13279;SDS011;6708;49.814;8.652;2024-01-15T13:58:30;4.07;;;3.77;;
13279;SDS011;6708;49.814;8.652;2024-01-15T14:01:04;4.60;;;4.20;;
13279;SDS011;6708;49.814;8.652;2024-01-15T14:03:32;4.83;;;4.43;;
13279;SDS011;6708;49.814;8.652;2024-01-15T14:06:06;5.93;;;5.10;;
13279;SDS011;6708;49.814;8.652;2024-01-15T14:08:37;5.30;;;4.80;;
13279;SDS011;6708;49.814;8.652;2024-01-15T14:11:05;7.40;;;4.53;;
13279;SDS011;6708;49.814;8.652;2024-01-15T14:13:35;4.87;;;4.40;;
13279;SDS011;6708;49.814;8.652;2024-01-15T14:16:04;5.13;;;4.53;;
13279;SDS011;6708;49.814;8.652;2024-01-15T14:18:33;5.07;;;4.57;;
13279;SDS011;6708;49.814;8.652;2024-01-15T14:21:07;5.03;;;4.53;;
13279;SDS011;6708;49.814;8.652;2024-01-15T14:23:35;5.53;;;3.80;;
13279;SDS011;6708;49.814;8.652;2024-01-15T14:26:04;6.40;;;4.17;;
13279;SDS011;6708;49.814;8.652;2024-01-15T14:28:32;5.97;;;4.37;;
13279;SDS011;6708;49.814;8.652;2024-01-15T14:31:01;6.53;;;3.90;;
13279;SDS011;6708;49.814;8.652;2024-01-15T14:33:30;5.40;;;4.10;;
13279;SDS011;6708;49.814;8.652;2024-01-15T14:36:00;4.37;;;4.07;;
13279;SDS011;6708;49.814;8.652;2024-01-15T14:38:31;5.90;;;3.87;;
13279;SDS011;6708;49.814;8.652;2024-01-15T14:41:00;4.77;;;4.30;;
13279;SDS011;6708;49.814;8.652;2024-01-15T14:43:29;4.20;;;3.80;;
13279;SDS011;6708;49.814;8.652;2024-01-15T14:45:58;7.37;;;3.60;;
13279;SDS011;6708;49.814;8.652;2024-01-15T14:48:26;5.60;;;4.17;;
13279;SDS011;6708;49.814;8.652;2024-01-15T14:50:55;3.77;;;3.57;;
13279;SDS011;6708;49.814;8.652;2024-01-15T14:53:23;7.10;;;3.67;;
13279;SDS011;6708;49.814;8.652;2024-01-15T14:55:54;3.83;;;3.43;;
13279;SDS011;6708;49.814;8.652;2024-01-15T14:58:23;3.87;;;3.57;;
13279;SDS011;6708;49.814;8.652;2024-01-15T15:00:51;7.30;;;3.70;;
13279;SDS011;6708;49.814;8.652;2024-01-15T15:03:20;3.77;;;3.47;;
13279;SDS011;6708;49.814;8.652;2024-01-15T15:05:49;5.13;;;3.20;;
13279;SDS011;6708;49.814;8.652;2024-01-15T15:08:17;3.00;;;2.80;;